Hlavní strana
METAR-TAF:

METAR-TAF

Letiště :

Litchfield Municipal Airport

Litchfield, Illinois, Spojené státy americké

zeměpisná šířka: 39-09-44N, zeměpisná délka: 089-40-28W, výška: 210 m

Aktuální stav počasí

Zpráva byla vytvořena před 16 minutami, v 21:35 UTC
Severní vítr 5 kt
Teplota 6°C
Vlhkost vzduchu 49%
Tlak 1028 hPa
Viditelnost: 16.1 km
Jasno

METAR: K3LF 252135Z AUTO 01005KT 10SM CLR 06/M04 A3037 RMK AO2 T00631040

Čas: 15:51 (21:51 UTC)


TAF: chybějící

Stav a předpovědi počasí z více než 4 000 letišť (zprávy METAR a TAF).

Červené a žluté tečky na mapě představují dostupné meteorologické stanice.

Když kurzor umístíte na tečku, zobrazí se název stanice.

Pak kliknutím zobrazíte stav a předpověď počasí.

Chcete-li změnit mapu, kliknutím na zelené tlačítko se znaménkem +mapu přiblížíte, kliknutím na zelené tlačítko se znaménkem – mapu oddálíte a kliknutím na zelené šipky přejdete na sousední mapy.


METAR-TAF: